sensor_id;sensor_type;location;lat;lon;timestamp;temperature;humidity
32476;DHT22;18929;48.008;10.882;2023-10-31T00:00:52;11.50;99.90
32476;DHT22;18929;48.008;10.882;2023-10-31T00:03:18;11.60;99.90
32476;DHT22;18929;48.008;10.882;2023-10-31T00:05:45;11.40;99.90
32476;DHT22;18929;48.008;10.882;2023-10-31T00:08:13;11.20;99.90
32476;DHT22;18929;48.008;10.882;2023-10-31T00:10:40;11.30;99.90
32476;DHT22;18929;48.008;10.882;2023-10-31T00:13:10;11.40;99.90
32476;DHT22;18929;48.008;10.882;2023-10-31T00:15:37;11.30;99.90
32476;DHT22;18929;48.008;10.882;2023-10-31T00:18:04;11.20;99.90
32476;DHT22;18929;48.008;10.882;2023-10-31T00:20:30;11.40;99.90
32476;DHT22;18929;48.008;10.882;2023-10-31T00:22:57;11.40;99.90
32476;DHT22;18929;48.008;10.882;2023-10-31T00:25:25;11.60;99.90
32476;DHT22;18929;48.008;10.882;2023-10-31T00:27:52;11.40;99.90
32476;DHT22;18929;48.008;10.882;2023-10-31T00:30:19;11.60;99.90
32476;DHT22;18929;48.008;10.882;2023-10-31T00:32:46;11.40;99.90
32476;DHT22;18929;48.008;10.882;2023-10-31T00:35:13;11.50;99.90
32476;DHT22;18929;48.008;10.882;2023-10-31T00:37:40;11.40;99.90
32476;DHT22;18929;48.008;10.882;2023-10-31T00:40:07;11.40;99.90
32476;DHT22;18929;48.008;10.882;2023-10-31T00:42:37;11.40;99.90
32476;DHT22;18929;48.008;10.882;2023-10-31T00:45:06;11.40;99.90
32476;DHT22;18929;48.008;10.882;2023-10-31T00:47:34;11.60;99.90
32476;DHT22;18929;48.008;10.882;2023-10-31T00:50:01;11.80;99.90
32476;DHT22;18929;48.008;10.882;2023-10-31T00:52:27;11.70;99.90
32476;DHT22;18929;48.008;10.882;2023-10-31T00:54:54;11.80;99.90
32476;DHT22;18929;48.008;10.882;2023-10-31T00:57:21;11.80;99.90
32476;DHT22;18929;48.008;10.882;2023-10-31T00:59:49;11.60;99.90
32476;DHT22;18929;48.008;10.882;2023-10-31T01:02:16;11.30;99.90
32476;DHT22;18929;48.008;10.882;2023-10-31T01:04:43;11.60;99.90
32476;DHT22;18929;48.008;10.882;2023-10-31T01:07:09;11.60;99.90
32476;DHT22;18929;48.008;10.882;2023-10-31T01:09:37;11.60;99.90
32476;DHT22;18929;48.008;10.882;2023-10-31T01:12:05;11.60;99.90
32476;DHT22;18929;48.008;10.882;2023-10-31T01:14:32;11.60;99.90
32476;DHT22;18929;48.008;10.882;2023-10-31T01:17:00;11.60;99.90
32476;DHT22;18929;48.008;10.882;2023-10-31T01:19:27;11.50;99.90
32476;DHT22;18929;48.008;10.882;2023-10-31T01:21:54;11.60;99.90
32476;DHT22;18929;48.008;10.882;2023-10-31T01:24:21;11.50;99.90
32476;DHT22;18929;48.008;10.882;2023-10-31T01:26:48;11.30;99.90
32476;DHT22;18929;48.008;10.882;2023-10-31T01:29:15;11.40;99.90
32476;DHT22;18929;48.008;10.882;2023-10-31T01:31:42;11.20;99.90
32476;DHT22;18929;48.008;10.882;2023-10-31T01:34:10;11.10;99.90
32476;DHT22;18929;48.008;10.882;2023-10-31T01:36:37;11.20;99.90
32476;DHT22;18929;48.008;10.882;2023-10-31T01:39:04;11.20;99.90
32476;DHT22;18929;48.008;10.882;2023-10-31T01:41:31;11.10;99.90
32476;DHT22;18929;48.008;10.882;2023-10-31T01:43:58;11.30;99.90
32476;DHT22;18929;48.008;10.882;2023-10-31T01:46:24;11.20;99.90
32476;DHT22;18929;48.008;10.882;2023-10-31T01:48:51;11.00;99.90
32476;DHT22;18929;48.008;10.882;2023-10-31T01:51:20;11.30;99.90
32476;DHT22;18929;48.008;10.882;2023-10-31T01:53:46;11.30;99.90
32476;DHT22;18929;48.008;10.882;2023-10-31T01:56:13;11.20;99.90
32476;DHT22;18929;48.008;10.882;2023-10-31T01:58:40;11.10;99.90
32476;DHT22;18929;48.008;10.882;2023-10-31T02:01:08;11.20;99.90
32476;DHT22;18929;48.008;10.882;2023-10-31T02:03:35;11.30;99.90
32476;DHT22;18929;48.008;10.882;2023-10-31T02:06:03;11.30;99.90
32476;DHT22;18929;48.008;10.882;2023-10-31T02:08:31;11.20;99.90
32476;DHT22;18929;48.008;10.882;2023-10-31T02:10:58;11.20;99.90
32476;DHT22;18929;48.008;10.882;2023-10-31T02:13:25;10.90;99.90
32476;DHT22;18929;48.008;10.882;2023-10-31T02:15:52;11.10;99.90
32476;DHT22;18929;48.008;10.882;2023-10-31T02:18:19;11.20;99.90
32476;DHT22;18929;48.008;10.882;2023-10-31T02:20:46;11.20;99.90
32476;DHT22;18929;48.008;10.882;2023-10-31T02:23:16;11.30;99.90
32476;DHT22;18929;48.008;10.882;2023-10-31T02:25:43;11.00;99.90
32476;DHT22;18929;48.008;10.882;2023-10-31T02:28:09;11.00;99.90
32476;DHT22;18929;48.008;10.882;2023-10-31T02:30:36;10.90;99.90
32476;DHT22;18929;48.008;10.882;2023-10-31T02:35:40;11.20;99.90
32476;DHT22;18929;48.008;10.882;2023-10-31T02:38:07;11.20;99.90
32476;DHT22;18929;48.008;10.882;2023-10-31T02:40:35;11.00;99.90
32476;DHT22;18929;48.008;10.882;2023-10-31T02:43:02;11.10;99.90
32476;DHT22;18929;48.008;10.882;2023-10-31T02:45:28;11.10;99.90
32476;DHT22;18929;48.008;10.882;2023-10-31T02:47:55;11.10;99.90
32476;DHT22;18929;48.008;10.882;2023-10-31T02:50:22;11.40;99.90
32476;DHT22;18929;48.008;10.882;2023-10-31T02:52:49;11.40;99.90
32476;DHT22;18929;48.008;10.882;2023-10-31T02:55:19;11.30;99.90
32476;DHT22;18929;48.008;10.882;2023-10-31T02:57:47;10.90;99.90
32476;DHT22;18929;48.008;10.882;2023-10-31T03:00:14;10.70;99.90
32476;DHT22;18929;48.008;10.882;2023-10-31T03:02:41;10.80;99.90
32476;DHT22;18929;48.008;10.882;2023-10-31T03:05:08;11.00;99.90
32476;DHT22;18929;48.008;10.882;2023-10-31T03:07:35;11.00;99.90
32476;DHT22;18929;48.008;10.882;2023-10-31T03:10:02;11.00;99.90
32476;DHT22;18929;48.008;10.882;2023-10-31T03:12:29;11.10;99.90
32476;DHT22;18929;48.008;10.882;2023-10-31T03:14:57;10.90;99.90
32476;DHT22;18929;48.008;10.882;2023-10-31T03:17:24;10.80;99.90
32476;DHT22;18929;48.008;10.882;2023-10-31T03:19:53;10.90;99.90
32476;DHT22;18929;48.008;10.882;2023-10-31T03:22:20;10.70;99.90
32476;DHT22;18929;48.008;10.882;2023-10-31T03:24:47;10.50;99.90
32476;DHT22;18929;48.008;10.882;2023-10-31T03:27:13;10.50;99.90
32476;DHT22;18929;48.008;10.882;2023-10-31T03:29:40;10.60;99.90
32476;DHT22;18929;48.008;10.882;2023-10-31T03:32:08;10.70;99.90
32476;DHT22;18929;48.008;10.882;2023-10-31T03:34:35;10.80;99.90
32476;DHT22;18929;48.008;10.882;2023-10-31T03:37:02;10.90;99.90
32476;DHT22;18929;48.008;10.882;2023-10-31T03:39:30;10.80;99.90
32476;DHT22;18929;48.008;10.882;2023-10-31T03:41:56;10.70;99.90
32476;DHT22;18929;48.008;10.882;2023-10-31T03:44:23;10.80;99.90
32476;DHT22;18929;48.008;10.882;2023-10-31T03:46:50;10.80;99.90
32476;DHT22;18929;48.008;10.882;2023-10-31T03:49:18;10.70;99.90
32476;DHT22;18929;48.008;10.882;2023-10-31T03:51:45;10.70;99.90
32476;DHT22;18929;48.008;10.882;2023-10-31T03:54:13;10.90;99.90
32476;DHT22;18929;48.008;10.882;2023-10-31T03:56:40;10.80;99.90
32476;DHT22;18929;48.008;10.882;2023-10-31T03:59:07;10.60;99.90
32476;DHT22;18929;48.008;10.882;2023-10-31T04:01:34;10.70;99.90
32476;DHT22;18929;48.008;10.882;2023-10-31T04:04:01;10.60;99.90
32476;DHT22;18929;48.008;10.882;2023-10-31T04:06:29;10.60;99.90
32476;DHT22;18929;48.008;10.882;2023-10-31T04:08:56;10.50;99.90
32476;DHT22;18929;48.008;10.882;2023-10-31T04:11:22;10.50;99.90
32476;DHT22;18929;48.008;10.882;2023-10-31T04:13:49;10.60;99.90
32476;DHT22;18929;48.008;10.882;2023-10-31T04:16:24;10.30;99.90
32476;DHT22;18929;48.008;10.882;2023-10-31T04:18:51;10.40;99.90
32476;DHT22;18929;48.008;10.882;2023-10-31T04:21:18;10.60;99.90
32476;DHT22;18929;48.008;10.882;2023-10-31T04:23:46;10.70;99.90
32476;DHT22;18929;48.008;10.882;2023-10-31T04:26:13;10.70;99.90
32476;DHT22;18929;48.008;10.882;2023-10-31T04:28:41;10.90;99.90
32476;DHT22;18929;48.008;10.882;2023-10-31T04:31:08;10.80;99.90
32476;DHT22;18929;48.008;10.882;2023-10-31T04:33:35;10.80;99.90
32476;DHT22;18929;48.008;10.882;2023-10-31T04:36:02;10.70;99.90
32476;DHT22;18929;48.008;10.882;2023-10-31T04:38:29;10.50;99.90
32476;DHT22;18929;48.008;10.882;2023-10-31T04:40:57;10.40;99.90
32476;DHT22;18929;48.008;10.882;2023-10-31T04:43:24;10.50;99.90
32476;DHT22;18929;48.008;10.882;2023-10-31T04:45:50;10.70;99.90
32476;DHT22;18929;48.008;10.882;2023-10-31T04:48:17;10.60;99.90
32476;DHT22;18929;48.008;10.882;2023-10-31T04:50:44;10.60;99.90
32476;DHT22;18929;48.008;10.882;2023-10-31T04:53:11;10.70;99.90
32476;DHT22;18929;48.008;10.882;2023-10-31T04:55:38;10.60;99.90
32476;DHT22;18929;48.008;10.882;2023-10-31T04:58:06;10.50;99.90
32476;DHT22;18929;48.008;10.882;2023-10-31T05:00:33;10.50;99.90
32476;DHT22;18929;48.008;10.882;2023-10-31T05:03:00;10.50;99.90
32476;DHT22;18929;48.008;10.882;2023-10-31T05:05:28;10.50;99.90
32476;DHT22;18929;48.008;10.882;2023-10-31T05:07:55;10.30;99.90
32476;DHT22;18929;48.008;10.882;2023-10-31T05:10:22;10.40;99.90
32476;DHT22;18929;48.008;10.882;2023-10-31T05:12:48;10.50;99.90
32476;DHT22;18929;48.008;10.882;2023-10-31T05:15:17;10.50;99.90
32476;DHT22;18929;48.008;10.882;2023-10-31T05:17:44;10.60;99.90
32476;DHT22;18929;48.008;10.882;2023-10-31T05:20:11;10.60;99.90
32476;DHT22;18929;48.008;10.882;2023-10-31T05:22:40;10.60;99.90
32476;DHT22;18929;48.008;10.882;2023-10-31T05:25:07;10.70;99.90
32476;DHT22;18929;48.008;10.882;2023-10-31T05:27:33;10.60;99.90
32476;DHT22;18929;48.008;10.882;2023-10-31T05:30:00;10.60;99.90
32476;DHT22;18929;48.008;10.882;2023-10-31T05:32:29;10.80;99.90
32476;DHT22;18929;48.008;10.882;2023-10-31T05:35:04;10.50;99.90
32476;DHT22;18929;48.008;10.882;2023-10-31T05:37:31;10.50;99.90
32476;DHT22;18929;48.008;10.882;2023-10-31T05:39:58;10.60;99.90
32476;DHT22;18929;48.008;10.882;2023-10-31T05:42:24;10.60;99.90
32476;DHT22;18929;48.008;10.882;2023-10-31T05:44:53;10.70;99.90
32476;DHT22;18929;48.008;10.882;2023-10-31T05:47:19;10.60;99.90
32476;DHT22;18929;48.008;10.882;2023-10-31T05:49:49;10.70;99.90
32476;DHT22;18929;48.008;10.882;2023-10-31T05:52:16;10.60;99.90
32476;DHT22;18929;48.008;10.882;2023-10-31T05:54:44;10.50;99.90
32476;DHT22;18929;48.008;10.882;2023-10-31T05:57:11;10.60;99.90
32476;DHT22;18929;48.008;10.882;2023-10-31T05:59:38;10.60;99.90
32476;DHT22;18929;48.008;10.882;2023-10-31T06:02:05;10.60;99.90
32476;DHT22;18929;48.008;10.882;2023-10-31T06:04:32;10.50;99.90
32476;DHT22;18929;48.008;10.882;2023-10-31T06:07:00;10.60;99.90
32476;DHT22;18929;48.008;10.882;2023-10-31T06:09:28;10.50;99.90
32476;DHT22;18929;48.008;10.882;2023-10-31T06:11:55;10.60;99.90
32476;DHT22;18929;48.008;10.882;2023-10-31T06:14:21;10.50;99.90
32476;DHT22;18929;48.008;10.882;2023-10-31T06:16:48;10.50;99.90
32476;DHT22;18929;48.008;10.882;2023-10-31T06:19:15;10.60;99.90
32476;DHT22;18929;48.008;10.882;2023-10-31T06:21:42;10.40;99.90
32476;DHT22;18929;48.008;10.882;2023-10-31T06:24:10;10.40;99.90
32476;DHT22;18929;48.008;10.882;2023-10-31T06:26:37;10.30;99.90
32476;DHT22;18929;48.008;10.882;2023-10-31T06:29:05;10.20;99.90
32476;DHT22;18929;48.008;10.882;2023-10-31T06:31:31;10.10;99.90
32476;DHT22;18929;48.008;10.882;2023-10-31T06:33:58;10.20;99.90
32476;DHT22;18929;48.008;10.882;2023-10-31T06:36:25;10.30;99.90
32476;DHT22;18929;48.008;10.882;2023-10-31T06:38:52;10.10;99.90
32476;DHT22;18929;48.008;10.882;2023-10-31T06:41:21;10.00;99.90
32476;DHT22;18929;48.008;10.882;2023-10-31T06:43:47;10.10;99.90
32476;DHT22;18929;48.008;10.882;2023-10-31T06:46:14;10.20;99.90
32476;DHT22;18929;48.008;10.882;2023-10-31T06:48:41;10.20;99.90
32476;DHT22;18929;48.008;10.882;2023-10-31T06:51:08;10.30;99.90
32476;DHT22;18929;48.008;10.882;2023-10-31T06:53:35;10.50;99.90
32476;DHT22;18929;48.008;10.882;2023-10-31T06:56:02;10.40;99.90
32476;DHT22;18929;48.008;10.882;2023-10-31T06:58:31;10.30;99.90
32476;DHT22;18929;48.008;10.882;2023-10-31T07:00:57;10.40;99.90
32476;DHT22;18929;48.008;10.882;2023-10-31T07:03:25;10.20;99.90
32476;DHT22;18929;48.008;10.882;2023-10-31T07:05:52;10.20;99.90
32476;DHT22;18929;48.008;10.882;2023-10-31T07:08:19;10.20;99.90
32476;DHT22;18929;48.008;10.882;2023-10-31T07:10:45;10.30;99.90
32476;DHT22;18929;48.008;10.882;2023-10-31T07:13:13;10.40;99.90
32476;DHT22;18929;48.008;10.882;2023-10-31T07:15:42;10.50;99.90
32476;DHT22;18929;48.008;10.882;2023-10-31T07:18:09;10.50;99.90
32476;DHT22;18929;48.008;10.882;2023-10-31T07:20:36;10.40;99.90
32476;DHT22;18929;48.008;10.882;2023-10-31T07:23:03;10.60;99.90
32476;DHT22;18929;48.008;10.882;2023-10-31T07:25:30;10.10;99.90
32476;DHT22;18929;48.008;10.882;2023-10-31T07:27:56;9.90;99.90
32476;DHT22;18929;48.008;10.882;2023-10-31T07:30:25;10.20;99.90
32476;DHT22;18929;48.008;10.882;2023-10-31T07:32:56;10.20;99.90
32476;DHT22;18929;48.008;10.882;2023-10-31T07:35:23;10.30;99.90
32476;DHT22;18929;48.008;10.882;2023-10-31T07:37:50;10.30;99.90
32476;DHT22;18929;48.008;10.882;2023-10-31T07:40:17;10.40;99.90
32476;DHT22;18929;48.008;10.882;2023-10-31T07:42:43;10.30;99.90
32476;DHT22;18929;48.008;10.882;2023-10-31T07:45:10;10.40;99.90
32476;DHT22;18929;48.008;10.882;2023-10-31T07:47:37;10.10;99.90
32476;DHT22;18929;48.008;10.882;2023-10-31T07:50:06;10.20;99.90
32476;DHT22;18929;48.008;10.882;2023-10-31T07:52:35;10.40;99.90
32476;DHT22;18929;48.008;10.882;2023-10-31T07:55:02;10.20;99.90
32476;DHT22;18929;48.008;10.882;2023-10-31T07:57:28;10.20;99.90
32476;DHT22;18929;48.008;10.882;2023-10-31T07:59:55;10.10;99.90
32476;DHT22;18929;48.008;10.882;2023-10-31T08:02:22;10.30;99.90
32476;DHT22;18929;48.008;10.882;2023-10-31T08:04:49;10.40;99.90
32476;DHT22;18929;48.008;10.882;2023-10-31T08:07:17;10.10;99.90
32476;DHT22;18929;48.008;10.882;2023-10-31T08:09:44;10.10;99.90
32476;DHT22;18929;48.008;10.882;2023-10-31T08:14:41;10.00;99.90
32476;DHT22;18929;48.008;10.882;2023-10-31T08:17:08;10.30;99.90
32476;DHT22;18929;48.008;10.882;2023-10-31T08:19:35;10.30;99.90
32476;DHT22;18929;48.008;10.882;2023-10-31T08:22:04;10.30;99.90
32476;DHT22;18929;48.008;10.882;2023-10-31T08:24:32;10.40;99.90
32476;DHT22;18929;48.008;10.882;2023-10-31T08:27:01;10.30;99.90
32476;DHT22;18929;48.008;10.882;2023-10-31T08:29:28;10.50;99.90
32476;DHT22;18929;48.008;10.882;2023-10-31T08:31:55;10.50;99.90
32476;DHT22;18929;48.008;10.882;2023-10-31T08:34:22;10.70;99.90
32476;DHT22;18929;48.008;10.882;2023-10-31T08:36:49;10.60;99.90
32476;DHT22;18929;48.008;10.882;2023-10-31T08:39:18;10.60;99.90
32476;DHT22;18929;48.008;10.882;2023-10-31T08:41:52;10.50;99.90
32476;DHT22;18929;48.008;10.882;2023-10-31T08:44:19;10.70;99.90
32476;DHT22;18929;48.008;10.882;2023-10-31T08:46:46;10.60;99.90
32476;DHT22;18929;48.008;10.882;2023-10-31T08:49:14;10.70;99.90
32476;DHT22;18929;48.008;10.882;2023-10-31T08:51:41;10.80;99.90
32476;DHT22;18929;48.008;10.882;2023-10-31T08:54:10;10.60;99.90
32476;DHT22;18929;48.008;10.882;2023-10-31T08:56:37;10.30;99.90
32476;DHT22;18929;48.008;10.882;2023-10-31T08:59:05;10.40;99.90
32476;DHT22;18929;48.008;10.882;2023-10-31T09:01:32;10.20;99.90
32476;DHT22;18929;48.008;10.882;2023-10-31T09:04:00;10.30;99.90
32476;DHT22;18929;48.008;10.882;2023-10-31T09:08:58;10.50;99.90
32476;DHT22;18929;48.008;10.882;2023-10-31T09:11:25;10.50;99.90
32476;DHT22;18929;48.008;10.882;2023-10-31T09:13:51;10.70;99.90
32476;DHT22;18929;48.008;10.882;2023-10-31T09:16:20;10.90;99.90
32476;DHT22;18929;48.008;10.882;2023-10-31T09:18:46;10.60;99.90
32476;DHT22;18929;48.008;10.882;2023-10-31T09:21:14;10.60;99.90
32476;DHT22;18929;48.008;10.882;2023-10-31T09:23:40;10.60;99.90
32476;DHT22;18929;48.008;10.882;2023-10-31T09:28:44;10.80;99.90
32476;DHT22;18929;48.008;10.882;2023-10-31T09:31:15;10.60;99.90
32476;DHT22;18929;48.008;10.882;2023-10-31T09:33:43;10.60;99.90
32476;DHT22;18929;48.008;10.882;2023-10-31T09:36:10;10.70;99.90
32476;DHT22;18929;48.008;10.882;2023-10-31T09:38:38;10.60;99.90
32476;DHT22;18929;48.008;10.882;2023-10-31T09:41:05;10.60;99.90
32476;DHT22;18929;48.008;10.882;2023-10-31T09:43:32;10.60;99.90
32476;DHT22;18929;48.008;10.882;2023-10-31T09:45:59;10.70;99.90
32476;DHT22;18929;48.008;10.882;2023-10-31T09:48:26;10.70;99.90
32476;DHT22;18929;48.008;10.882;2023-10-31T09:50:55;10.70;99.90
32476;DHT22;18929;48.008;10.882;2023-10-31T09:53:22;10.60;99.90
32476;DHT22;18929;48.008;10.882;2023-10-31T09:55:50;10.70;99.90
32476;DHT22;18929;48.008;10.882;2023-10-31T09:58:19;10.70;99.90
32476;DHT22;18929;48.008;10.882;2023-10-31T10:00:46;10.70;99.90
32476;DHT22;18929;48.008;10.882;2023-10-31T10:03:13;11.00;99.90
32476;DHT22;18929;48.008;10.882;2023-10-31T10:05:40;10.90;99.90
32476;DHT22;18929;48.008;10.882;2023-10-31T10:08:11;10.90;99.90
32476;DHT22;18929;48.008;10.882;2023-10-31T10:10:38;11.10;99.90
32476;DHT22;18929;48.008;10.882;2023-10-31T10:13:05;11.10;99.90
32476;DHT22;18929;48.008;10.882;2023-10-31T10:15:42;10.90;99.90
32476;DHT22;18929;48.008;10.882;2023-10-31T10:18:10;11.10;99.90
32476;DHT22;18929;48.008;10.882;2023-10-31T10:20:38;10.90;99.90
32476;DHT22;18929;48.008;10.882;2023-10-31T10:23:21;10.90;99.90
32476;DHT22;18929;48.008;10.882;2023-10-31T10:25:49;10.80;99.90
32476;DHT22;18929;48.008;10.882;2023-10-31T10:28:15;10.60;99.90
32476;DHT22;18929;48.008;10.882;2023-10-31T10:30:44;10.50;99.90
32476;DHT22;18929;48.008;10.882;2023-10-31T10:33:11;10.70;99.90
32476;DHT22;18929;48.008;10.882;2023-10-31T10:35:41;10.70;99.90
32476;DHT22;18929;48.008;10.882;2023-10-31T10:38:09;10.60;99.90
32476;DHT22;18929;48.008;10.882;2023-10-31T10:40:38;10.50;99.90
32476;DHT22;18929;48.008;10.882;2023-10-31T10:43:06;10.90;99.90
32476;DHT22;18929;48.008;10.882;2023-10-31T10:45:36;11.00;99.90
32476;DHT22;18929;48.008;10.882;2023-10-31T10:48:04;10.90;99.90
32476;DHT22;18929;48.008;10.882;2023-10-31T10:50:31;10.90;99.90
32476;DHT22;18929;48.008;10.882;2023-10-31T10:53:05;10.70;99.90
32476;DHT22;18929;48.008;10.882;2023-10-31T10:55:45;10.80;99.90
32476;DHT22;18929;48.008;10.882;2023-10-31T10:58:13;10.80;99.90
32476;DHT22;18929;48.008;10.882;2023-10-31T11:00:45;10.80;99.90
32476;DHT22;18929;48.008;10.882;2023-10-31T11:03:12;10.80;99.90
32476;DHT22;18929;48.008;10.882;2023-10-31T11:05:39;10.80;99.90
32476;DHT22;18929;48.008;10.882;2023-10-31T11:08:06;11.00;99.90
32476;DHT22;18929;48.008;10.882;2023-10-31T11:10:33;10.90;99.90
32476;DHT22;18929;48.008;10.882;2023-10-31T11:13:02;11.30;99.90
32476;DHT22;18929;48.008;10.882;2023-10-31T11:15:29;11.30;99.90
32476;DHT22;18929;48.008;10.882;2023-10-31T11:17:56;11.20;99.90
32476;DHT22;18929;48.008;10.882;2023-10-31T11:20:36;11.10;99.90
32476;DHT22;18929;48.008;10.882;2023-10-31T11:23:03;11.10;99.90
32476;DHT22;18929;48.008;10.882;2023-10-31T11:25:32;11.00;99.90
32476;DHT22;18929;48.008;10.882;2023-10-31T11:28:12;11.20;99.90
32476;DHT22;18929;48.008;10.882;2023-10-31T11:30:39;11.10;99.90
32476;DHT22;18929;48.008;10.882;2023-10-31T11:33:06;11.10;99.90
32476;DHT22;18929;48.008;10.882;2023-10-31T11:35:38;10.80;99.90
32476;DHT22;18929;48.008;10.882;2023-10-31T11:38:06;11.10;99.90
32476;DHT22;18929;48.008;10.882;2023-10-31T11:40:33;11.10;99.90
32476;DHT22;18929;48.008;10.882;2023-10-31T11:43:02;11.10;99.90
32476;DHT22;18929;48.008;10.882;2023-10-31T11:45:33;11.20;99.90
32476;DHT22;18929;48.008;10.882;2023-10-31T11:48:00;11.10;99.90
32476;DHT22;18929;48.008;10.882;2023-10-31T11:50:27;11.40;99.90
32476;DHT22;18929;48.008;10.882;2023-10-31T11:53:01;11.30;99.90
32476;DHT22;18929;48.008;10.882;2023-10-31T11:55:28;10.90;99.90
32476;DHT22;18929;48.008;10.882;2023-10-31T11:57:55;11.00;99.90
32476;DHT22;18929;48.008;10.882;2023-10-31T12:00:22;11.30;99.90
32476;DHT22;18929;48.008;10.882;2023-10-31T12:03:00;11.20;99.90
32476;DHT22;18929;48.008;10.882;2023-10-31T12:05:27;11.30;99.90
32476;DHT22;18929;48.008;10.882;2023-10-31T12:07:55;11.20;99.90
32476;DHT22;18929;48.008;10.882;2023-10-31T12:10:23;11.20;99.90
32476;DHT22;18929;48.008;10.882;2023-10-31T12:12:50;11.30;99.90
32476;DHT22;18929;48.008;10.882;2023-10-31T12:15:17;11.60;99.90
32476;DHT22;18929;48.008;10.882;2023-10-31T12:17:43;11.60;99.90
32476;DHT22;18929;48.008;10.882;2023-10-31T12:20:12;11.30;99.90
32476;DHT22;18929;48.008;10.882;2023-10-31T12:22:39;10.90;99.90
32476;DHT22;18929;48.008;10.882;2023-10-31T12:25:06;11.10;99.90
32476;DHT22;18929;48.008;10.882;2023-10-31T12:30:19;11.60;99.90
32476;DHT22;18929;48.008;10.882;2023-10-31T12:32:53;11.40;99.90
32476;DHT22;18929;48.008;10.882;2023-10-31T12:35:22;11.30;99.90
32476;DHT22;18929;48.008;10.882;2023-10-31T12:37:49;11.30;99.90
32476;DHT22;18929;48.008;10.882;2023-10-31T12:40:17;11.10;99.90
32476;DHT22;18929;48.008;10.882;2023-10-31T12:42:44;11.10;99.90
32476;DHT22;18929;48.008;10.882;2023-10-31T12:45:12;11.10;99.90
32476;DHT22;18929;48.008;10.882;2023-10-31T12:47:39;10.90;99.90
32476;DHT22;18929;48.008;10.882;2023-10-31T12:50:07;10.90;99.90
32476;DHT22;18929;48.008;10.882;2023-10-31T12:52:46;11.10;99.90
32476;DHT22;18929;48.008;10.882;2023-10-31T12:55:14;11.20;99.90
32476;DHT22;18929;48.008;10.882;2023-10-31T12:57:41;11.30;99.90
32476;DHT22;18929;48.008;10.882;2023-10-31T13:00:08;11.20;99.90
32476;DHT22;18929;48.008;10.882;2023-10-31T13:02:38;11.40;99.90
32476;DHT22;18929;48.008;10.882;2023-10-31T13:05:08;11.60;99.90
32476;DHT22;18929;48.008;10.882;2023-10-31T13:07:36;11.70;99.90
32476;DHT22;18929;48.008;10.882;2023-10-31T13:10:05;11.40;99.90
32476;DHT22;18929;48.008;10.882;2023-10-31T13:12:33;11.30;99.90
32476;DHT22;18929;48.008;10.882;2023-10-31T13:14:59;11.40;99.90
32476;DHT22;18929;48.008;10.882;2023-10-31T13:17:27;11.50;99.90
32476;DHT22;18929;48.008;10.882;2023-10-31T13:19:56;11.30;99.90
32476;DHT22;18929;48.008;10.882;2023-10-31T13:22:23;11.20;99.90
32476;DHT22;18929;48.008;10.882;2023-10-31T13:24:52;11.40;99.90
32476;DHT22;18929;48.008;10.882;2023-10-31T13:27:20;11.20;99.90
32476;DHT22;18929;48.008;10.882;2023-10-31T13:29:47;11.40;99.90
32476;DHT22;18929;48.008;10.882;2023-10-31T13:32:15;11.40;99.90
32476;DHT22;18929;48.008;10.882;2023-10-31T13:34:42;11.30;99.90
32476;DHT22;18929;48.008;10.882;2023-10-31T13:37:09;11.40;99.90
32476;DHT22;18929;48.008;10.882;2023-10-31T13:39:36;11.50;99.90
32476;DHT22;18929;48.008;10.882;2023-10-31T13:42:04;11.60;99.90
32476;DHT22;18929;48.008;10.882;2023-10-31T13:44:32;11.70;99.90
32476;DHT22;18929;48.008;10.882;2023-10-31T13:47:13;11.80;99.90
32476;DHT22;18929;48.008;10.882;2023-10-31T13:49:40;11.80;99.90
32476;DHT22;18929;48.008;10.882;2023-10-31T13:52:07;11.90;99.90
32476;DHT22;18929;48.008;10.882;2023-10-31T13:54:34;12.00;99.90
32476;DHT22;18929;48.008;10.882;2023-10-31T13:57:01;11.80;99.90
32476;DHT22;18929;48.008;10.882;2023-10-31T13:59:27;11.80;99.90
32476;DHT22;18929;48.008;10.882;2023-10-31T14:01:56;11.70;99.90
32476;DHT22;18929;48.008;10.882;2023-10-31T14:04:22;11.50;99.90
32476;DHT22;18929;48.008;10.882;2023-10-31T14:06:49;11.70;99.90
32476;DHT22;18929;48.008;10.882;2023-10-31T14:09:17;12.10;99.90
32476;DHT22;18929;48.008;10.882;2023-10-31T14:11:43;11.90;99.90
32476;DHT22;18929;48.008;10.882;2023-10-31T14:14:10;11.80;99.90
32476;DHT22;18929;48.008;10.882;2023-10-31T14:16:39;11.80;99.90
32476;DHT22;18929;48.008;10.882;2023-10-31T14:19:07;11.80;99.90
32476;DHT22;18929;48.008;10.882;2023-10-31T14:21:34;12.30;99.90
32476;DHT22;18929;48.008;10.882;2023-10-31T14:24:01;13.00;99.90
32476;DHT22;18929;48.008;10.882;2023-10-31T14:26:28;13.50;99.90
32476;DHT22;18929;48.008;10.882;2023-10-31T14:28:55;13.80;99.90
32476;DHT22;18929;48.008;10.882;2023-10-31T14:31:22;13.80;99.90
32476;DHT22;18929;48.008;10.882;2023-10-31T14:33:49;13.70;99.90
32476;DHT22;18929;48.008;10.882;2023-10-31T14:36:17;14.10;99.90
32476;DHT22;18929;48.008;10.882;2023-10-31T14:38:44;14.40;99.90
32476;DHT22;18929;48.008;10.882;2023-10-31T14:41:11;14.40;99.90
32476;DHT22;18929;48.008;10.882;2023-10-31T14:43:39;14.40;99.90
32476;DHT22;18929;48.008;10.882;2023-10-31T14:46:06;14.50;99.90
32476;DHT22;18929;48.008;10.882;2023-10-31T14:48:34;14.10;99.90
32476;DHT22;18929;48.008;10.882;2023-10-31T14:51:00;14.20;99.90
32476;DHT22;18929;48.008;10.882;2023-10-31T14:53:32;14.20;99.90
32476;DHT22;18929;48.008;10.882;2023-10-31T14:56:00;14.40;99.90
32476;DHT22;18929;48.008;10.882;2023-10-31T14:58:27;14.60;99.90
32476;DHT22;18929;48.008;10.882;2023-10-31T15:00:53;14.60;99.90
32476;DHT22;18929;48.008;10.882;2023-10-31T15:03:20;14.30;99.90
32476;DHT22;18929;48.008;10.882;2023-10-31T15:05:47;14.20;99.90
32476;DHT22;18929;48.008;10.882;2023-10-31T15:08:14;14.20;99.90
32476;DHT22;18929;48.008;10.882;2023-10-31T15:10:43;14.10;99.90
32476;DHT22;18929;48.008;10.882;2023-10-31T15:13:10;13.70;99.90
32476;DHT22;18929;48.008;10.882;2023-10-31T15:15:36;13.50;99.90
32476;DHT22;18929;48.008;10.882;2023-10-31T15:18:03;13.90;99.90
32476;DHT22;18929;48.008;10.882;2023-10-31T15:20:30;14.10;99.90
32476;DHT22;18929;48.008;10.882;2023-10-31T15:22:57;14.20;99.90
32476;DHT22;18929;48.008;10.882;2023-10-31T15:25:24;14.10;99.90
32476;DHT22;18929;48.008;10.882;2023-10-31T15:27:53;14.10;99.90
32476;DHT22;18929;48.008;10.882;2023-10-31T15:30:20;14.10;99.90